Airfield :
LOGIN :

Register | Disclaimer

   EN    FR    IT 

 










Legend :    VFR   Marginal VFR   IFR   Intensive IFR   Very Intensive IFR
Visi :
Ceiling :
>= 8 km
>= 3000ft
5 to 8 km
1000 to 3000 ft
1500m to 5 km
500 to 1000 ft
800 to 1500m
200 to 500 ft
< 800m
< 200 ft
Symbols :   Thunderstorms  Fog  Heavy snow  Heavy precipitations  Wind > 20 kt
SIGMETs :     Misc.  Thunderstorms  Icing  Turbulence  Mountain Waves  Volcanic Ashes






- Airport Elevation : 870 ft
- IATA code : ETZ


LFJL - Metz Nancy Lorraine

CURRENT METAR :
  • 301700Z AUTO 30014KT 9999 BKN038/// ///TCU 16/11 Q1015 TEMPO SHRA FEW050CB BECMG 24005KT

EXPIRED METARs :
  • 301630Z AUTO 29023KT 9999 FEW021 BKN100 17/11 Q1014 TEMPO SHRA FEW050CB BECMG 24005KT
  • 301600Z AUTO 28021KT 9999 BKN019 OVC100 18/11 Q1014 TEMPO 2000 TSRA FEW050CB BECMG 24005KT
  • 301530Z AUTO 29024KT 9999 BKN017 OVC140 18/13 Q1013 TEMPO 2000 TSRA FEW050CB BECMG 24005KT
  • 301500Z AUTO 29023KT CAVOK 20/14 Q1012 TEMPO 30020G35KT 2000 TSRA BKN010 BKN040CB
  • 301430Z AUTO 28019KT 9999 //////CB 24/15 Q1011 TEMPO 30020G35KT 2000 TSRA BKN010 BKN040CB

TAF TAF LFJL
Valid from the 30 at 12:00 until the 01 at 12:00 UTC


301100Z 3012/0112 24005KT CAVOK
TEMPO 3012/3018 SHRA FEW050CB
PROB40
TEMPO 3012/3017 30020G35KT 2000 TSRA BKN010 BKN040CB
PROB30
TEMPO 3012/3015 TSRAGS
PROB30
TEMPO 3021/0106 BKN009
PROB40
TEMPO 0110/0112 SHRA FEW050TCU



MET'MAP, your aeronautical weather chart ! - Copyright ORBIFLY December 2007 - Disclaimer

ORBIFLY MET'MAP TEAM :

Programming & Development : Alexandra Zaïnal
Original concept : Baudouin d'Aumeries
Technical & hardware support : Manuel Goepfert
Assistance : Marc-Olivier Méhu




SOURCES & CREDITS :

   NOAA